Time;durP1;ratioP1;P1;durP2;ratioP2;P2;SDS_P1;SDS_P2;PMS_P1;PMS_P2;Temp;Humidity;BMP_temperature;BMP_pressure;BME280_temperature;BME280_humidity;BME280_pressure;Samples;Min_cycle;Max_cycle;Signal;HPM_P1;HPM_P2
2021/08/13 00:01:27;;;;;;;12.13;7.38;;;;;;;;;;5020214;28;20050;-60
2021/08/13 00:03:56;;;;;;;14.70;7.28;;;;;;;;;;5016724;28;20042;-59
2021/08/13 00:06:25;;;;;;;13.15;7.78;;;;;;;;;;5019512;28;20049;-60
2021/08/13 00:08:53;;;;;;;12.20;7.70;;;;;;;;;;5014894;28;20125;-59
2021/08/13 00:11:21;;;;;;;12.32;7.63;;;;;;;;;;5011613;28;20053;-60
2021/08/13 00:13:50;;;;;;;12.65;7.80;;;;;;;;;;5025477;28;20103;-60
2021/08/13 00:16:18;;;;;;;11.63;7.82;;;;;;;;;;5026434;28;20136;-59
2021/08/13 00:18:46;;;;;;;14.80;7.65;;;;;;;;;;5017661;28;20038;-59
2021/08/13 00:21:14;;;;;;;14.10;7.85;;;;;;;;;;5027375;28;20416;-59
2021/08/13 00:23:44;;;;;;;12.40;7.55;;;;;;;;;;5026560;28;20076;-59
2021/08/13 00:26:12;;;;;;;13.38;7.75;;;;;;;;;;5007490;28;20053;-59
2021/08/13 00:28:41;;;;;;;10.65;7.50;;;;;;;;;;5020582;28;20054;-59
2021/08/13 00:31:09;;;;;;;13.40;7.32;;;;;;;;;;5020227;28;20054;-59
2021/08/13 00:33:37;;;;;;;12.65;7.25;;;;;;;;;;5021159;28;20046;-59
2021/08/13 00:36:06;;;;;;;12.25;7.28;;;;;;;;;;5023054;28;20049;-60
2021/08/13 00:38:34;;;;;;;12.15;7.45;;;;;;;;;;5025209;28;20041;-60
2021/08/13 00:41:04;;;;;;;11.48;7.00;;;;;;;;;;5025956;28;20049;-59
2021/08/13 00:43:33;;;;;;;11.68;7.20;;;;;;;;;;5026461;28;20132;-59
2021/08/13 00:46:01;;;;;;;12.55;7.80;;;;;;;;;;5022519;28;20136;-60
2021/08/13 00:48:29;;;;;;;11.98;6.95;;;;;;;;;;5027669;28;20128;-59
2021/08/13 00:50:57;;;;;;;10.35;6.97;;;;;;;;;;5026889;28;20515;-59
2021/08/13 00:53:27;;;;;;;11.75;7.60;;;;;;;;;;5020075;28;20204;-60
2021/08/13 00:55:55;;;;;;;11.10;7.18;;;;;;;;;;5018093;28;20090;-60
2021/08/13 00:58:25;;;;;;;12.48;6.47;;;;;;;;;;5038744;28;20045;-59
2021/08/13 01:00:53;;;;;;;11.55;7.07;;;;;;;;;;5025477;28;20049;-59
2021/08/13 01:03:22;;;;;;;12.18;6.70;;;;;;;;;;5018842;28;20049;-59
2021/08/13 01:05:50;;;;;;;10.65;6.10;;;;;;;;;;5029914;28;20045;-59
2021/08/13 01:08:18;;;;;;;12.80;7.75;;;;;;;;;;5026396;28;20492;-61
2021/08/13 01:10:48;;;;;;;10.07;6.40;;;;;;;;;;5032041;28;20045;-59
2021/08/13 01:13:19;;;;;;;9.68;6.45;;;;;;;;;;5025181;28;20044;-59
2021/08/13 01:15:51;;;;;;;13.15;6.47;;;;;;;;;;5022334;28;20409;-60
2021/08/13 01:18:23;;;;;;;11.63;7.13;;;;;;;;;;5019075;28;20045;-59
2021/08/13 01:21:10;;;;;;;12.60;7.05;;;;;;;;;;5031170;28;20056;-60
2021/08/13 01:23:40;;;;;;;10.70;6.75;;;;;;;;;;5026619;28;20055;-60
2021/08/13 01:26:10;;;;;;;11.55;7.53;;;;;;;;;;5031230;28;20152;-60
2021/08/13 01:28:47;;;;;;;12.77;7.18;;;;;;;;;;5023539;28;20045;-59
2021/08/13 01:31:19;;;;;;;11.70;6.88;;;;;;;;;;5022342;28;20058;-59
2021/08/13 01:33:52;;;;;;;12.10;7.22;;;;;;;;;;5018847;28;20045;-59
2021/08/13 01:36:21;;;;;;;12.75;7.30;;;;;;;;;;5017564;28;20048;-59
2021/08/13 01:38:50;;;;;;;12.68;7.25;;;;;;;;;;5027038;28;20128;-60
2021/08/13 01:41:19;;;;;;;12.43;7.47;;;;;;;;;;5019404;28;20068;-60
2021/08/13 01:43:47;;;;;;;11.70;6.85;;;;;;;;;;5026192;28;20059;-61
2021/08/13 01:46:16;;;;;;;11.23;6.47;;;;;;;;;;5016201;28;20056;-59
2021/08/13 01:48:44;;;;;;;10.75;6.53;;;;;;;;;;5024442;28;20493;-60
2021/08/13 01:51:17;;;;;;;11.13;6.95;;;;;;;;;;5013337;28;20447;-59
2021/08/13 01:53:46;;;;;;;11.75;7.15;;;;;;;;;;5019035;28;20045;-59
2021/08/13 01:56:15;;;;;;;13.05;6.82;;;;;;;;;;5022907;28;20482;-59
2021/08/13 01:58:43;;;;;;;11.55;6.78;;;;;;;;;;5017372;28;20057;-59
2021/08/13 02:01:11;;;;;;;10.02;6.72;;;;;;;;;;5017907;28;20429;-59
2021/08/13 02:03:41;;;;;;;11.95;7.00;;;;;;;;;;5027149;28;20053;-59
2021/08/13 02:06:09;;;;;;;12.25;7.32;;;;;;;;;;5030414;28;20124;-59
2021/08/13 02:08:39;;;;;;;9.75;6.40;;;;;;;;;;5032167;28;20064;-60
2021/08/13 02:11:08;;;;;;;12.80;6.82;;;;;;;;;;5024581;28;20084;-59
2021/08/13 02:13:37;;;;;;;11.65;6.80;;;;;;;;;;5019768;28;20046;-59
2021/08/13 02:16:08;;;;;;;10.38;6.47;;;;;;;;;;5026636;28;20584;-59
2021/08/13 02:18:39;;;;;;;8.88;6.00;;;;;;;;;;5027987;28;20739;-59
2021/08/13 02:21:11;;;;;;;10.35;5.80;;;;;;;;;;5029958;28;20055;-59
2021/08/13 02:23:40;;;;;;;12.02;6.50;;;;;;;;;;5017107;28;20056;-59
2021/08/13 02:26:09;;;;;;;9.90;6.85;;;;;;;;;;5022905;28;20049;-59
2021/08/13 02:28:37;;;;;;;10.10;6.78;;;;;;;;;;5019317;28;20707;-60
2021/08/13 02:31:05;;;;;;;11.65;6.40;;;;;;;;;;5024395;28;20049;-60
2021/08/13 02:33:33;;;;;;;8.90;6.35;;;;;;;;;;5016248;28;20088;-60
2021/08/13 02:36:06;;;;;;;11.48;6.60;;;;;;;;;;5026648;28;20052;-59
2021/08/13 02:38:36;;;;;;;10.18;6.40;;;;;;;;;;5021627;28;20224;-59
2021/08/13 02:41:07;;;;;;;8.90;6.60;;;;;;;;;;5016473;28;20049;-59
2021/08/13 02:43:37;;;;;;;11.43;6.60;;;;;;;;;;5020564;28;20129;-59
2021/08/13 02:46:06;;;;;;;11.05;6.55;;;;;;;;;;5027164;28;20052;-60
2021/08/13 02:48:36;;;;;;;8.98;5.78;;;;;;;;;;5016816;28;20100;-59
2021/08/13 02:51:05;;;;;;;9.65;6.20;;;;;;;;;;5014667;28;20045;-59
2021/08/13 02:53:37;;;;;;;8.73;5.93;;;;;;;;;;5014736;28;20048;-59
2021/08/13 02:56:08;;;;;;;10.30;6.43;;;;;;;;;;5009188;28;20049;-59
2021/08/13 02:58:40;;;;;;;14.10;6.50;;;;;;;;;;5024236;28;20051;-59
2021/08/13 03:01:09;;;;;;;8.80;5.80;;;;;;;;;;5023299;28;20519;-59
2021/08/13 03:03:37;;;;;;;11.02;6.78;;;;;;;;;;5021105;28;20049;-60
2021/08/13 03:06:07;;;;;;;9.73;5.65;;;;;;;;;;5023076;28;20109;-59
2021/08/13 03:08:36;;;;;;;8.15;5.93;;;;;;;;;;5019499;28;20124;-59
2021/08/13 03:11:05;;;;;;;9.85;6.38;;;;;;;;;;5014740;28;20115;-59
2021/08/13 03:13:35;;;;;;;9.80;6.40;;;;;;;;;;5024323;28;20596;-59
2021/08/13 03:16:03;;;;;;;10.52;5.75;;;;;;;;;;5028005;28;20412;-59
2021/08/13 03:18:32;;;;;;;9.32;6.32;;;;;;;;;;5023858;28;20124;-59
2021/08/13 03:21:00;;;;;;;9.63;6.30;;;;;;;;;;5016755;28;20141;-59
2021/08/13 03:23:29;;;;;;;10.52;6.28;;;;;;;;;;5013225;28;20096;-60
2021/08/13 03:25:57;;;;;;;8.90;5.50;;;;;;;;;;5024932;28;20055;-59
2021/08/13 03:28:48;;;;;;;6.05;4.22;;;;;;;;;;1985646;28;10022743;-60
2021/08/13 03:31:31;;;;;;;9.50;5.70;;;;;;;;;;3985580;28;10001324;-60
2021/08/13 03:33:59;;;;;;;7.93;5.65;;;;;;;;;;5026784;28;20056;-59
2021/08/13 03:36:27;;;;;;;11.07;5.90;;;;;;;;;;5028357;28;20056;-59
2021/08/13 03:38:56;;;;;;;10.95;6.50;;;;;;;;;;5015845;28;20045;-59
2021/08/13 03:41:24;;;;;;;9.98;6.10;;;;;;;;;;5020383;28;20056;-60
2021/08/13 03:43:54;;;;;;;10.05;5.75;;;;;;;;;;5025975;28;20149;-59
2021/08/13 03:46:22;;;;;;;10.40;5.82;;;;;;;;;;5022098;28;20041;-59
2021/08/13 03:48:50;;;;;;;8.25;5.70;;;;;;;;;;5021947;28;20147;-60
2021/08/13 03:51:19;;;;;;;14.15;6.32;;;;;;;;;;5014474;28;20056;-59
2021/08/13 03:53:47;;;;;;;9.77;5.90;;;;;;;;;;5020409;28;20461;-60
2021/08/13 03:56:15;;;;;;;10.13;5.80;;;;;;;;;;5018113;28;20042;-59
2021/08/13 03:58:43;;;;;;;8.25;5.22;;;;;;;;;;5013169;28;20149;-60
2021/08/13 04:01:13;;;;;;;11.68;6.72;;;;;;;;;;5020613;28;20061;-61
2021/08/13 04:03:42;;;;;;;10.45;6.35;;;;;;;;;;5018190;28;20053;-61
2021/08/13 04:06:10;;;;;;;11.75;5.90;;;;;;;;;;5012843;28;20049;-60
2021/08/13 04:08:38;;;;;;;10.45;6.20;;;;;;;;;;5013443;28;20056;-60
2021/08/13 04:11:06;;;;;;;10.65;5.95;;;;;;;;;;5019730;28;20063;-59
2021/08/13 04:13:35;;;;;;;9.73;5.65;;;;;;;;;;5025414;28;20501;-59
2021/08/13 04:16:03;;;;;;;9.95;6.05;;;;;;;;;;5017693;28;20049;-60
2021/08/13 04:18:33;;;;;;;8.73;5.72;;;;;;;;;;5026810;28;20045;-61
2021/08/13 04:21:01;;;;;;;8.52;5.40;;;;;;;;;;5019617;28;20088;-59
2021/08/13 04:23:29;;;;;;;8.85;5.57;;;;;;;;;;5016665;28;20064;-61
2021/08/13 04:25:57;;;;;;;9.20;5.68;;;;;;;;;;5022222;28;20650;-60
2021/08/13 04:28:26;;;;;;;7.65;5.28;;;;;;;;;;5017886;28;20045;-59
2021/08/13 04:30:54;;;;;;;8.32;5.60;;;;;;;;;;5021305;28;20398;-60
2021/08/13 04:33:23;;;;;;;12.48;6.30;;;;;;;;;;5015206;28;20054;-60
2021/08/13 04:35:52;;;;;;;9.70;5.85;;;;;;;;;;5015770;28;20366;-61
2021/08/13 04:38:20;;;;;;;8.13;5.63;;;;;;;;;;5012234;28;20050;-60
2021/08/13 04:40:49;;;;;;;10.00;5.55;;;;;;;;;;5018211;28;20079;-60
2021/08/13 04:43:17;;;;;;;9.90;5.78;;;;;;;;;;5020795;28;20045;-60
2021/08/13 04:45:45;;;;;;;9.68;5.78;;;;;;;;;;5022938;28;20053;-60
2021/08/13 04:48:13;;;;;;;9.15;5.55;;;;;;;;;;5025618;28;20046;-60
2021/08/13 04:50:42;;;;;;;7.47;5.32;;;;;;;;;;5024065;28;20048;-60
2021/08/13 04:53:11;;;;;;;10.25;5.78;;;;;;;;;;5021031;28;20057;-60
2021/08/13 04:55:39;;;;;;;10.30;6.05;;;;;;;;;;5018864;28;20045;-60
2021/08/13 04:58:08;;;;;;;8.57;5.78;;;;;;;;;;5014856;28;20073;-61
2021/08/13 05:00:36;;;;;;;10.70;6.10;;;;;;;;;;5015541;28;20039;-59
2021/08/13 05:03:05;;;;;;;9.55;6.13;;;;;;;;;;5009607;28;20651;-60
2021/08/13 05:05:33;;;;;;;9.27;6.25;;;;;;;;;;5017309;28;20080;-60
2021/08/13 05:08:02;;;;;;;8.48;5.13;;;;;;;;;;5025448;28;20088;-60
2021/08/13 05:10:31;;;;;;;10.20;6.53;;;;;;;;;;5023387;28;20053;-60
2021/08/13 05:12:59;;;;;;;9.02;6.10;;;;;;;;;;5020604;28;20047;-60
2021/08/13 05:15:29;;;;;;;10.32;5.78;;;;;;;;;;5022239;28;20140;-59
2021/08/13 05:17:57;;;;;;;9.05;5.78;;;;;;;;;;5024303;28;20046;-60
2021/08/13 05:20:25;;;;;;;9.45;6.00;;;;;;;;;;5020761;28;20183;-60
2021/08/13 05:22:54;;;;;;;10.88;5.93;;;;;;;;;;5022429;28;20076;-61
2021/08/13 05:25:22;;;;;;;10.50;6.05;;;;;;;;;;5008582;28;20429;-60
2021/08/13 05:27:52;;;;;;;10.00;6.20;;;;;;;;;;5021396;28;20053;-61
2021/08/13 05:30:21;;;;;;;8.73;6.15;;;;;;;;;;5015637;28;20049;-60
2021/08/13 05:32:50;;;;;;;8.50;5.60;;;;;;;;;;5004445;28;20093;-60
2021/08/13 05:35:18;;;;;;;9.90;5.90;;;;;;;;;;5018440;28;20050;-60
2021/08/13 05:37:46;;;;;;;10.48;6.47;;;;;;;;;;5010452;28;20038;-60
2021/08/13 05:40:16;;;;;;;12.40;6.53;;;;;;;;;;5020118;28;20111;-60
2021/08/13 05:42:44;;;;;;;10.77;6.43;;;;;;;;;;5009645;28;20563;-61
2021/08/13 05:45:14;;;;;;;9.27;6.38;;;;;;;;;;5020819;28;20053;-60
2021/08/13 05:47:42;;;;;;;13.38;6.90;;;;;;;;;;5011643;28;20417;-60
2021/08/13 05:50:15;;;;;;;9.35;6.47;;;;;;;;;;5019620;28;20293;-60
2021/08/13 05:52:43;;;;;;;13.88;6.38;;;;;;;;;;5019718;28;20160;-60
2021/08/13 05:55:12;;;;;;;11.80;6.25;;;;;;;;;;5012759;28;20065;-60
2021/08/13 05:57:41;;;;;;;8.65;5.97;;;;;;;;;;5013267;28;20045;-60
2021/08/13 06:00:10;;;;;;;9.02;5.70;;;;;;;;;;5014343;28;20073;-59
2021/08/13 06:02:50;;;;;;;10.65;6.40;;;;;;;;;;5026103;28;20056;-59
2021/08/13 06:05:19;;;;;;;8.77;6.03;;;;;;;;;;5014517;28;20069;-60
2021/08/13 06:07:47;;;;;;;9.88;6.05;;;;;;;;;;5022492;28;20045;-60
2021/08/13 06:10:16;;;;;;;9.02;6.10;;;;;;;;;;5023195;28;20054;-60
2021/08/13 06:12:44;;;;;;;12.65;6.05;;;;;;;;;;5019580;28;20269;-60
2021/08/13 06:15:13;;;;;;;10.30;5.40;;;;;;;;;;5021876;28;20053;-60
2021/08/13 06:17:44;;;;;;;8.98;5.72;;;;;;;;;;5026195;28;20053;-59
2021/08/13 06:20:12;;;;;;;11.57;5.45;;;;;;;;;;5010866;28;20141;-59
2021/08/13 06:22:41;;;;;;;11.07;5.15;;;;;;;;;;5007086;28;20468;-60
2021/08/13 06:25:09;;;;;;;10.07;5.63;;;;;;;;;;5020235;28;20484;-59
2021/08/13 06:27:40;;;;;;;9.65;4.63;;;;;;;;;;5018014;28;20099;-60
2021/08/13 06:30:09;;;;;;;9.57;5.18;;;;;;;;;;5015966;28;20138;-62
2021/08/13 06:32:38;;;;;;;7.13;4.88;;;;;;;;;;5022537;28;20068;-60
2021/08/13 06:35:12;;;;;;;7.38;4.70;;;;;;;;;;5023442;28;20139;-61
2021/08/13 06:37:44;;;;;;;9.02;5.10;;;;;;;;;;5013292;28;20049;-60
2021/08/13 06:40:13;;;;;;;11.02;5.05;;;;;;;;;;5022667;28;20049;-61
2021/08/13 06:42:42;;;;;;;8.73;5.13;;;;;;;;;;5018831;28;20120;-60
2021/08/13 06:45:11;;;;;;;8.50;4.68;;;;;;;;;;5014437;28;20054;-60
2021/08/13 06:47:39;;;;;;;8.60;4.55;;;;;;;;;;5022853;28;20312;-60
2021/08/13 06:50:08;;;;;;;7.75;4.70;;;;;;;;;;5021749;28;20062;-60
2021/08/13 06:52:38;;;;;;;6.00;4.38;;;;;;;;;;5027641;28;20055;-60
2021/08/13 06:55:07;;;;;;;7.53;4.40;;;;;;;;;;5021510;28;20436;-61
2021/08/13 06:57:35;;;;;;;8.52;4.55;;;;;;;;;;5014810;28;20084;-60
2021/08/13 07:00:04;;;;;;;9.88;4.45;;;;;;;;;;5021760;28;20136;-62
2021/08/13 07:02:33;;;;;;;7.30;4.18;;;;;;;;;;5019653;28;20049;-60
2021/08/13 07:05:02;;;;;;;10.98;4.15;;;;;;;;;;5024147;28;20041;-61
2021/08/13 07:07:31;;;;;;;9.55;4.43;;;;;;;;;;5013281;28;20474;-64
2021/08/13 07:10:04;;;;;;;5.85;3.85;;;;;;;;;;5016765;28;20041;-60
2021/08/13 07:12:34;;;;;;;9.25;4.18;;;;;;;;;;5019018;28;20092;-60
2021/08/13 07:15:02;;;;;;;11.60;4.15;;;;;;;;;;5018386;28;20409;-60
2021/08/13 07:17:31;;;;;;;6.45;3.67;;;;;;;;;;5015407;28;20057;-60
2021/08/13 07:20:03;;;;;;;8.15;3.85;;;;;;;;;;5012286;28;20341;-60
2021/08/13 07:22:32;;;;;;;9.07;4.22;;;;;;;;;;5022258;28;20261;-61
2021/08/13 07:25:01;;;;;;;6.32;3.90;;;;;;;;;;5023421;28;20041;-60
2021/08/13 07:27:30;;;;;;;8.77;3.55;;;;;;;;;;5017753;28;20486;-59
2021/08/13 07:29:58;;;;;;;6.28;3.63;;;;;;;;;;5024944;28;20505;-60
2021/08/13 07:32:26;;;;;;;5.90;3.42;;;;;;;;;;5018498;28;20283;-62
2021/08/13 07:34:55;;;;;;;10.68;4.32;;;;;;;;;;5021502;28;20053;-60
2021/08/13 07:37:23;;;;;;;8.52;4.40;;;;;;;;;;5021798;28;20131;-60
2021/08/13 07:39:51;;;;;;;5.15;3.28;;;;;;;;;;5012886;28;20164;-61
2021/08/13 07:42:25;;;;;;;8.98;3.97;;;;;;;;;;5017945;28;20054;-62
2021/08/13 07:44:54;;;;;;;6.67;3.80;;;;;;;;;;5016713;28;20137;-60
2021/08/13 07:47:22;;;;;;;10.00;4.45;;;;;;;;;;5013907;28;20326;-60
2021/08/13 07:49:50;;;;;;;10.10;5.30;;;;;;;;;;5023537;28;20092;-60
2021/08/13 07:52:19;;;;;;;7.63;4.03;;;;;;;;;;5015836;28;20133;-59
2021/08/13 07:54:47;;;;;;;9.35;4.22;;;;;;;;;;5016258;28;20049;-61
2021/08/13 07:57:17;;;;;;;5.93;3.90;;;;;;;;;;5015976;28;20136;-60
2021/08/13 07:59:46;;;;;;;7.28;4.22;;;;;;;;;;5023265;28;20088;-60
2021/08/13 08:02:15;;;;;;;6.47;4.13;;;;;;;;;;5012440;28;20085;-61
2021/08/13 08:04:44;;;;;;;8.02;4.20;;;;;;;;;;5017674;28;20409;-60
2021/08/13 08:07:13;;;;;;;7.68;4.60;;;;;;;;;;5020908;28;20429;-61
2021/08/13 08:09:41;;;;;;;9.45;4.65;;;;;;;;;;5018158;28;20140;-59
2021/08/13 08:12:10;;;;;;;8.95;4.00;;;;;;;;;;5022728;28;20097;-60
2021/08/13 08:14:38;;;;;;;6.60;3.70;;;;;;;;;;5017913;28;20498;-61
2021/08/13 08:17:08;;;;;;;10.98;4.40;;;;;;;;;;5015264;28;20054;-61
2021/08/13 08:19:36;;;;;;;8.50;4.30;;;;;;;;;;5015261;28;20050;-61
2021/08/13 08:22:05;;;;;;;5.55;4.15;;;;;;;;;;5019533;28;20053;-59
2021/08/13 08:24:33;;;;;;;8.68;4.10;;;;;;;;;;5022985;28;20152;-59
2021/08/13 08:27:01;;;;;;;5.00;3.58;;;;;;;;;;5017606;28;20075;-60
2021/08/13 08:29:30;;;;;;;9.20;4.45;;;;;;;;;;5021563;28;20049;-59
2021/08/13 08:31:58;;;;;;;8.40;4.07;;;;;;;;;;5016669;28;20057;-60
2021/08/13 08:34:28;;;;;;;10.02;4.55;;;;;;;;;;5019080;28;20528;-60
2021/08/13 08:36:56;;;;;;;8.05;4.18;;;;;;;;;;5022612;28;20041;-61
2021/08/13 08:39:26;;;;;;;10.02;4.30;;;;;;;;;;5015727;28;20441;-61
2021/08/13 08:41:55;;;;;;;7.13;4.00;;;;;;;;;;5012888;28;20081;-60
2021/08/13 08:44:23;;;;;;;8.05;4.50;;;;;;;;;;5024024;28;20419;-60
2021/08/13 08:46:52;;;;;;;8.75;4.07;;;;;;;;;;5021899;28;20063;-60
2021/08/13 08:49:21;;;;;;;7.72;3.60;;;;;;;;;;5022115;28;20133;-60
2021/08/13 08:51:55;;;;;;;7.20;4.10;;;;;;;;;;5014676;28;20079;-60
2021/08/13 08:54:26;;;;;;;7.28;3.53;;;;;;;;;;5022781;28;20085;-60
2021/08/13 08:56:55;;;;;;;6.25;3.90;;;;;;;;;;5019004;28;20091;-61
2021/08/13 08:59:38;;;;;;;8.02;4.05;;;;;;;;;;5021400;28;20081;-61
2021/08/13 09:02:07;;;;;;;6.35;3.63;;;;;;;;;;5023899;28;20089;-59
2021/08/13 09:04:35;;;;;;;10.13;3.97;;;;;;;;;;5020128;28;20568;-60
2021/08/13 09:07:06;;;;;;;7.55;3.83;;;;;;;;;;5023752;28;20084;-60
2021/08/13 09:09:35;;;;;;;8.15;4.40;;;;;;;;;;5023883;28;20370;-61
2021/08/13 09:12:03;;;;;;;5.70;3.63;;;;;;;;;;5023145;28;20046;-61
2021/08/13 09:14:39;;;;;;;29.77;4.80;;;;;;;;;;5016805;28;20080;-60
2021/08/13 09:17:07;;;;;;;6.10;4.00;;;;;;;;;;5021140;28;20055;-60
2021/08/13 09:19:42;;;;;;;7.30;3.83;;;;;;;;;;5020870;28;20111;-60
2021/08/13 09:22:13;;;;;;;8.20;4.22;;;;;;;;;;5023503;28;20247;-60
2021/08/13 09:24:42;;;;;;;6.45;3.88;;;;;;;;;;5014964;28;20494;-60
2021/08/13 09:27:17;;;;;;;6.18;3.90;;;;;;;;;;5022545;28;20132;-60
2021/08/13 09:30:00;;;;;;;5.95;3.97;;;;;;;;;;5023920;28;20268;-60
2021/08/13 09:32:29;;;;;;;6.40;3.50;;;;;;;;;;5019711;28;20128;-61
2021/08/13 09:34:57;;;;;;;6.28;3.63;;;;;;;;;;5016432;28;20132;-60
2021/08/13 09:37:27;;;;;;;6.30;3.70;;;;;;;;;;5024846;28;20124;-61
2021/08/13 09:39:58;;;;;;;8.82;3.92;;;;;;;;;;5027713;28;20361;-60
2021/08/13 09:42:33;;;;;;;6.43;3.70;;;;;;;;;;5028602;28;20049;-60
2021/08/13 09:45:02;;;;;;;6.28;3.83;;;;;;;;;;5026400;28;20049;-60
2021/08/13 09:47:44;;;;;;;5.10;3.80;;;;;;;;;;5024752;28;20172;-61
2021/08/13 09:50:13;;;;;;;6.80;3.25;;;;;;;;;;5026185;28;20084;-60
2021/08/13 09:52:43;;;;;;;6.47;3.40;;;;;;;;;;5023754;28;20041;-60
2021/08/13 09:55:13;;;;;;;8.50;3.45;;;;;;;;;;5027064;28;20140;-60
2021/08/13 09:57:45;;;;;;;4.95;3.17;;;;;;;;;;5026365;28;20041;-61
2021/08/13 10:00:14;;;;;;;6.60;3.08;;;;;;;;;;5017370;28;20049;-60
2021/08/13 10:02:43;;;;;;;5.15;3.13;;;;;;;;;;5027321;28;20048;-59
2021/08/13 10:05:20;;;;;;;6.70;2.80;;;;;;;;;;5026763;28;20057;-60
2021/08/13 10:07:53;;;;;;;5.80;3.25;;;;;;;;;;5018502;28;20140;-61
2021/08/13 10:10:26;;;;;;;5.03;2.78;;;;;;;;;;5021573;28;20048;-60
2021/08/13 10:12:54;;;;;;;6.30;2.75;;;;;;;;;;5019920;28;20112;-61
2021/08/13 10:15:33;;;;;;;3.97;2.58;;;;;;;;;;5019366;28;20566;-61
2021/08/13 10:18:03;;;;;;;6.50;2.75;;;;;;;;;;5018140;28;20425;-60
2021/08/13 10:20:32;;;;;;;6.82;3.10;;;;;;;;;;5023736;28;20136;-61
2021/08/13 10:23:03;;;;;;;3.28;2.30;;;;;;;;;;5027894;28;20053;-61
2021/08/13 10:25:31;;;;;;;4.85;2.30;;;;;;;;;;5021453;28;20054;-61
2021/08/13 10:27:59;;;;;;;3.10;2.50;;;;;;;;;;5021364;28;20128;-61
2021/08/13 10:30:28;;;;;;;5.20;2.67;;;;;;;;;;5020725;28;20104;-61
2021/08/13 10:32:57;;;;;;;5.10;2.55;;;;;;;;;;5023278;28;20048;-61
2021/08/13 10:35:29;;;;;;;3.95;2.45;;;;;;;;;;5017688;28;20073;-61
2021/08/13 10:37:59;;;;;;;6.05;2.38;;;;;;;;;;5023299;28;20061;-60
2021/08/13 10:40:30;;;;;;;4.80;2.20;;;;;;;;;;5026926;28;20045;-61
2021/08/13 10:42:58;;;;;;;4.13;2.42;;;;;;;;;;5020948;28;20049;-61
2021/08/13 10:45:29;;;;;;;3.30;2.15;;;;;;;;;;5014397;28;20057;-60
2021/08/13 10:47:59;;;;;;;5.15;2.50;;;;;;;;;;5023797;28;20136;-61
2021/08/13 10:50:27;;;;;;;3.65;2.35;;;;;;;;;;5025395;28;20057;-60
2021/08/13 10:52:56;;;;;;;3.35;2.35;;;;;;;;;;5025533;28;20037;-60
2021/08/13 10:55:46;;;;;;;5.65;2.20;;;;;;;;;;5023239;28;20049;-60
2021/08/13 10:58:14;;;;;;;3.13;2.03;;;;;;;;;;5022637;28;20449;-60
2021/08/13 11:01:01;;;;;;;4.60;2.30;;;;;;;;;;5025961;28;20057;-60
2021/08/13 11:03:30;;;;;;;4.25;2.53;;;;;;;;;;5019516;28;20096;-60
2021/08/13 11:05:59;;;;;;;4.22;2.25;;;;;;;;;;5023338;28;20076;-61
2021/08/13 11:08:55;;;;;;;4.63;2.30;;;;;;;;;;5021396;28;20046;-60
2021/08/13 11:11:24;;;;;;;3.05;2.25;;;;;;;;;;5022138;28;20137;-60
2021/08/13 11:13:53;;;;;;;3.65;2.38;;;;;;;;;;5017066;28;20085;-60
2021/08/13 11:16:34;;;;;;;3.75;2.15;;;;;;;;;;5024692;28;20132;-61
2021/08/13 11:19:03;;;;;;;3.72;2.65;;;;;;;;;;5025113;28;20053;-61
2021/08/13 11:21:32;;;;;;;2.97;1.98;;;;;;;;;;5020202;28;20050;-60
2021/08/13 11:24:01;;;;;;;3.40;2.15;;;;;;;;;;5024013;28;20505;-61
2021/08/13 11:26:54;;;;;;;3.47;2.00;;;;;;;;;;5015129;28;20044;-60
2021/08/13 11:29:36;;;;;;;3.25;2.13;;;;;;;;;;5011878;28;20045;-60
2021/08/13 11:32:07;;;;;;;4.25;2.20;;;;;;;;;;5017504;28;20107;-60
2021/08/13 11:34:45;;;;;;;3.58;2.20;;;;;;;;;;5020629;28;20106;-60
2021/08/13 11:37:28;;;;;;;2.95;2.00;;;;;;;;;;5020476;28;20144;-60
2021/08/13 11:39:57;;;;;;;4.05;2.45;;;;;;;;;;5021300;28;20069;-62
2021/08/13 11:42:30;;;;;;;2.60;1.98;;;;;;;;;;5027279;28;20041;-60
2021/08/13 11:45:01;;;;;;;3.08;2.30;;;;;;;;;;5020533;28;20124;-61
2021/08/13 11:47:29;;;;;;;3.95;2.20;;;;;;;;;;5025794;28;20144;-61
2021/08/13 11:49:58;;;;;;;4.65;2.50;;;;;;;;;;5019392;28;20049;-60
2021/08/13 11:52:27;;;;;;;5.32;2.35;;;;;;;;;;5021422;28;20133;-60
2021/08/13 11:54:56;;;;;;;3.17;2.30;;;;;;;;;;5024217;28;20128;-61
2021/08/13 11:57:25;;;;;;;2.90;2.00;;;;;;;;;;5026507;28;20060;-61
2021/08/13 11:59:53;;;;;;;5.60;2.05;;;;;;;;;;5018060;28;20047;-61
2021/08/13 12:02:29;;;;;;;6.13;2.33;;;;;;;;;;5023359;28;20153;-61
2021/08/13 12:05:04;;;;;;;3.65;2.35;;;;;;;;;;5023028;28;20227;-61
2021/08/13 12:07:32;;;;;;;2.67;1.70;;;;;;;;;;5018431;28;20077;-61
2021/08/13 12:10:09;;;;;;;5.50;1.85;;;;;;;;;;5021622;28;20045;-61
2021/08/13 12:12:37;;;;;;;7.68;1.98;;;;;;;;;;5023814;28;20080;-61
2021/08/13 12:15:06;;;;;;;4.80;2.00;;;;;;;;;;5023754;28;20053;-60
2021/08/13 12:17:37;;;;;;;5.78;2.03;;;;;;;;;;5024950;28;20498;-60
2021/08/13 12:20:06;;;;;;;3.38;1.80;;;;;;;;;;5024588;28;20497;-61
2021/08/13 12:22:35;;;;;;;2.92;1.58;;;;;;;;;;5022802;28;20047;-60
2021/08/13 12:25:05;;;;;;;5.32;1.90;;;;;;;;;;5024460;28;20152;-60
2021/08/13 12:27:36;;;;;;;3.13;1.88;;;;;;;;;;5024738;28;20174;-61
2021/08/13 12:30:05;;;;;;;3.78;1.95;;;;;;;;;;5019882;28;20111;-61
2021/08/13 12:32:38;;;;;;;3.38;1.83;;;;;;;;;;5022153;28;20560;-60
2021/08/13 12:35:08;;;;;;;7.25;2.75;;;;;;;;;;5024080;28;20057;-61
2021/08/13 12:37:37;;;;;;;3.45;1.63;;;;;;;;;;5021835;28;20484;-61
2021/08/13 12:40:06;;;;;;;3.75;2.00;;;;;;;;;;5023997;28;20049;-60
2021/08/13 12:42:35;;;;;;;7.00;1.85;;;;;;;;;;5023557;28;20405;-61
2021/08/13 12:45:03;;;;;;;4.90;1.98;;;;;;;;;;5019077;28;20053;-60
2021/08/13 12:47:31;;;;;;;6.63;2.17;;;;;;;;;;5023438;28;20135;-61
2021/08/13 12:50:01;;;;;;;6.47;2.25;;;;;;;;;;5020924;28;20037;-60
2021/08/13 12:52:30;;;;;;;4.57;1.80;;;;;;;;;;5020859;28;20052;-60
2021/08/13 12:54:59;;;;;;;5.68;1.90;;;;;;;;;;5019179;28;20339;-60
2021/08/13 12:57:37;;;;;;;3.20;1.48;;;;;;;;;;5019196;28;20053;-61
2021/08/13 13:00:10;;;;;;;3.13;1.25;;;;;;;;;;5015585;28;20390;-60
2021/08/13 13:02:38;;;;;;;3.10;1.63;;;;;;;;;;5018918;28;20053;-60
2021/08/13 13:05:09;;;;;;;4.60;1.60;;;;;;;;;;5020126;28;20076;-60
2021/08/13 13:07:38;;;;;;;5.03;1.45;;;;;;;;;;5022915;28;20041;-61
2021/08/13 13:10:15;;;;;;;3.97;1.80;;;;;;;;;;5019131;28;20053;-62
2021/08/13 13:12:43;;;;;;;3.92;1.70;;;;;;;;;;5026908;28;20085;-61
2021/08/13 13:15:25;;;;;;;8.43;1.90;;;;;;;;;;5026429;28;20055;-61
2021/08/13 13:17:56;;;;;;;5.78;1.70;;;;;;;;;;5025016;28;20488;-61
2021/08/13 13:20:26;;;;;;;6.75;1.75;;;;;;;;;;5027734;28;20071;-60
2021/08/13 13:23:04;;;;;;;2.95;1.33;;;;;;;;;;5022909;28;20053;-60
2021/08/13 13:25:42;;;;;;;7.30;1.60;;;;;;;;;;5028371;28;20053;-60
2021/08/13 13:28:10;;;;;;;2.78;1.50;;;;;;;;;;5018338;28;20049;-61
2021/08/13 13:30:40;;;;;;;6.38;1.60;;;;;;;;;;5024540;28;20160;-61
2021/08/13 13:33:09;;;;;;;6.10;1.52;;;;;;;;;;5016687;28;20154;-61
2021/08/13 13:35:40;;;;;;;4.95;1.80;;;;;;;;;;5024658;28;20155;-61
2021/08/13 13:38:09;;;;;;;5.22;1.40;;;;;;;;;;5020713;28;20046;-61
2021/08/13 13:40:39;;;;;;;5.40;1.88;;;;;;;;;;5025509;28;20055;-61
2021/08/13 13:43:08;;;;;;;8.20;1.75;;;;;;;;;;5023469;28;20132;-61
2021/08/13 13:45:37;;;;;;;4.43;1.60;;;;;;;;;;5023110;28;20211;-61
2021/08/13 13:48:06;;;;;;;5.22;1.70;;;;;;;;;;5025576;28;20046;-60
2021/08/13 13:50:35;;;;;;;4.63;1.50;;;;;;;;;;5027899;28;20041;-60
2021/08/13 13:53:05;;;;;;;5.50;1.92;;;;;;;;;;5017843;28;20075;-60
2021/08/13 13:55:33;;;;;;;7.30;1.60;;;;;;;;;;5029645;28;20423;-60
2021/08/13 13:58:01;;;;;;;4.32;1.67;;;;;;;;;;5021627;28;20145;-61
2021/08/13 14:00:30;;;;;;;4.85;1.80;;;;;;;;;;5020986;28;20064;-61
2021/08/13 14:02:58;;;;;;;5.07;1.70;;;;;;;;;;5021751;28;20325;-62
2021/08/13 14:05:28;;;;;;;4.70;1.70;;;;;;;;;;5023128;28;20096;-61
2021/08/13 14:07:56;;;;;;;7.55;1.95;;;;;;;;;;5020319;28;20073;-61
2021/08/13 14:10:27;;;;;;;5.38;1.90;;;;;;;;;;5017607;28;20045;-60
2021/08/13 14:12:59;;;;;;;5.72;1.77;;;;;;;;;;5019866;28;20073;-61
2021/08/13 14:15:28;;;;;;;6.47;1.73;;;;;;;;;;5020407;28;20572;-61
2021/08/13 14:17:56;;;;;;;3.72;1.60;;;;;;;;;;5017133;28;20045;-61
2021/08/13 14:20:24;;;;;;;3.13;1.83;;;;;;;;;;5017075;28;20168;-60
2021/08/13 14:22:53;;;;;;;5.07;2.15;;;;;;;;;;5020970;28;20054;-61
2021/08/13 14:25:22;;;;;;;7.30;1.92;;;;;;;;;;5022706;28;20144;-61
2021/08/13 14:27:52;;;;;;;6.57;1.90;;;;;;;;;;5023109;28;20055;-60
2021/08/13 14:30:21;;;;;;;7.43;1.90;;;;;;;;;;5015059;28;20092;-60
2021/08/13 14:32:49;;;;;;;7.93;2.38;;;;;;;;;;5022059;28;20140;-61
2021/08/13 14:35:18;;;;;;;4.68;1.30;;;;;;;;;;5016306;28;20072;-61
2021/08/13 14:37:46;;;;;;;5.00;2.33;;;;;;;;;;5020406;28;20452;-61
2021/08/13 14:40:15;;;;;;;4.63;2.08;;;;;;;;;;5019895;28;20046;-61
2021/08/13 14:42:44;;;;;;;5.72;1.75;;;;;;;;;;5013281;28;20049;-60
2021/08/13 14:45:15;;;;;;;6.63;1.83;;;;;;;;;;5016439;28;20046;-61
2021/08/13 14:47:44;;;;;;;4.30;1.65;;;;;;;;;;5019405;28;20089;-61
2021/08/13 14:50:12;;;;;;;6.18;2.08;;;;;;;;;;5018551;28;20501;-60
2021/08/13 14:52:41;;;;;;;6.10;1.90;;;;;;;;;;5017811;28;20071;-61
2021/08/13 14:55:09;;;;;;;3.22;2.10;;;;;;;;;;5012624;28;20391;-61